sensor_id;sensor_type;location;lat;lon;timestamp;P1;durP1;ratioP1;P2;durP2;ratioP2
30533;SDS011;17318;52.390;9.754;2023-05-16T00:01:52;13.93;;;7.82;;
30533;SDS011;17318;52.390;9.754;2023-05-16T00:04:18;10.75;;;7.78;;
30533;SDS011;17318;52.390;9.754;2023-05-16T00:06:44;12.48;;;8.15;;
30533;SDS011;17318;52.390;9.754;2023-05-16T00:09:09;11.65;;;7.93;;
30533;SDS011;17318;52.390;9.754;2023-05-16T00:11:35;12.50;;;8.20;;
30533;SDS011;17318;52.390;9.754;2023-05-16T00:14:01;12.30;;;7.85;;
30533;SDS011;17318;52.390;9.754;2023-05-16T00:16:28;12.30;;;7.65;;
30533;SDS011;17318;52.390;9.754;2023-05-16T00:18:54;11.23;;;6.57;;
30533;SDS011;17318;52.390;9.754;2023-05-16T00:21:24;10.75;;;7.07;;
30533;SDS011;17318;52.390;9.754;2023-05-16T00:23:50;12.27;;;7.53;;
30533;SDS011;17318;52.390;9.754;2023-05-16T00:26:17;15.50;;;8.15;;
30533;SDS011;17318;52.390;9.754;2023-05-16T00:28:43;12.55;;;7.38;;
30533;SDS011;17318;52.390;9.754;2023-05-16T00:31:09;12.38;;;8.00;;
30533;SDS011;17318;52.390;9.754;2023-05-16T00:33:34;12.20;;;7.68;;
30533;SDS011;17318;52.390;9.754;2023-05-16T00:36:00;12.38;;;7.90;;
30533;SDS011;17318;52.390;9.754;2023-05-16T00:38:26;18.30;;;8.60;;
30533;SDS011;17318;52.390;9.754;2023-05-16T00:40:51;17.08;;;9.05;;
30533;SDS011;17318;52.390;9.754;2023-05-16T00:43:17;14.27;;;8.60;;
30533;SDS011;17318;52.390;9.754;2023-05-16T00:45:43;11.65;;;8.35;;
30533;SDS011;17318;52.390;9.754;2023-05-16T00:48:10;14.10;;;8.95;;
30533;SDS011;17318;52.390;9.754;2023-05-16T00:50:38;13.73;;;8.35;;
30533;SDS011;17318;52.390;9.754;2023-05-16T00:53:04;11.85;;;7.60;;
30533;SDS011;17318;52.390;9.754;2023-05-16T00:55:29;12.35;;;6.38;;
30533;SDS011;17318;52.390;9.754;2023-05-16T00:57:56;11.70;;;6.65;;
30533;SDS011;17318;52.390;9.754;2023-05-16T01:00:23;9.70;;;6.07;;
30533;SDS011;17318;52.390;9.754;2023-05-16T01:02:49;8.15;;;5.15;;
30533;SDS011;17318;52.390;9.754;2023-05-16T01:05:17;8.98;;;4.32;;
30533;SDS011;17318;52.390;9.754;2023-05-16T01:07:44;5.93;;;3.43;;
30533;SDS011;17318;52.390;9.754;2023-05-16T01:10:10;4.68;;;3.38;;
30533;SDS011;17318;52.390;9.754;2023-05-16T01:12:40;12.10;;;3.25;;
30533;SDS011;17318;52.390;9.754;2023-05-16T01:15:28;4.70;;;2.72;;
30533;SDS011;17318;52.390;9.754;2023-05-16T01:20:42;8.88;;;2.78;;
30533;SDS011;17318;52.390;9.754;2023-05-16T01:23:51;9.27;;;2.63;;
30533;SDS011;17318;52.390;9.754;2023-05-16T01:26:27;9.23;;;2.78;;
30533;SDS011;17318;52.390;9.754;2023-05-16T01:28:54;3.75;;;2.60;;
30533;SDS011;17318;52.390;9.754;2023-05-16T01:31:20;7.97;;;2.60;;
30533;SDS011;17318;52.390;9.754;2023-05-16T01:33:47;6.00;;;2.70;;
30533;SDS011;17318;52.390;9.754;2023-05-16T01:42:09;6.95;;;3.50;;
30533;SDS011;17318;52.390;9.754;2023-05-16T01:47:32;7.20;;;4.30;;
30533;SDS011;17318;52.390;9.754;2023-05-16T01:50:13;8.02;;;4.10;;
30533;SDS011;17318;52.390;9.754;2023-05-16T01:55:14;10.70;;;4.55;;
30533;SDS011;17318;52.390;9.754;2023-05-16T01:57:47;14.52;;;4.22;;
30533;SDS011;17318;52.390;9.754;2023-05-16T02:00:14;13.52;;;4.63;;
30533;SDS011;17318;52.390;9.754;2023-05-16T02:02:40;7.13;;;4.15;;
30533;SDS011;17318;52.390;9.754;2023-05-16T02:05:06;7.60;;;3.50;;
30533;SDS011;17318;52.390;9.754;2023-05-16T02:07:32;10.35;;;3.60;;
30533;SDS011;17318;52.390;9.754;2023-05-16T02:09:58;9.35;;;3.55;;
30533;SDS011;17318;52.390;9.754;2023-05-16T02:12:24;9.57;;;3.20;;
30533;SDS011;17318;52.390;9.754;2023-05-16T02:14:49;11.05;;;3.60;;
30533;SDS011;17318;52.390;9.754;2023-05-16T02:17:15;8.07;;;3.13;;
30533;SDS011;17318;52.390;9.754;2023-05-16T02:19:41;6.82;;;2.90;;
30533;SDS011;17318;52.390;9.754;2023-05-16T02:22:07;7.18;;;3.75;;
30533;SDS011;17318;52.390;9.754;2023-05-16T02:24:32;5.97;;;3.25;;
30533;SDS011;17318;52.390;9.754;2023-05-16T02:26:58;8.95;;;3.83;;
30533;SDS011;17318;52.390;9.754;2023-05-16T02:29:23;10.07;;;3.97;;
30533;SDS011;17318;52.390;9.754;2023-05-16T02:31:49;5.88;;;3.17;;
30533;SDS011;17318;52.390;9.754;2023-05-16T02:34:15;10.65;;;3.63;;
30533;SDS011;17318;52.390;9.754;2023-05-16T02:36:40;8.80;;;3.70;;
30533;SDS011;17318;52.390;9.754;2023-05-16T02:39:06;9.32;;;3.75;;
30533;SDS011;17318;52.390;9.754;2023-05-16T02:41:34;7.65;;;3.80;;
30533;SDS011;17318;52.390;9.754;2023-05-16T02:44:00;7.47;;;3.92;;
30533;SDS011;17318;52.390;9.754;2023-05-16T02:46:26;11.02;;;4.07;;
30533;SDS011;17318;52.390;9.754;2023-05-16T02:48:56;12.48;;;3.95;;
30533;SDS011;17318;52.390;9.754;2023-05-16T02:51:23;10.73;;;4.05;;
30533;SDS011;17318;52.390;9.754;2023-05-16T02:53:51;10.45;;;4.07;;
30533;SDS011;17318;52.390;9.754;2023-05-16T02:56:17;10.10;;;4.25;;
30533;SDS011;17318;52.390;9.754;2023-05-16T02:58:45;7.70;;;3.85;;
30533;SDS011;17318;52.390;9.754;2023-05-16T03:01:12;8.00;;;3.95;;
30533;SDS011;17318;52.390;9.754;2023-05-16T03:03:38;9.00;;;3.95;;
30533;SDS011;17318;52.390;9.754;2023-05-16T03:06:03;11.27;;;3.80;;
30533;SDS011;17318;52.390;9.754;2023-05-16T03:08:30;11.82;;;4.47;;
30533;SDS011;17318;52.390;9.754;2023-05-16T03:10:56;9.48;;;4.10;;
30533;SDS011;17318;52.390;9.754;2023-05-16T03:13:22;9.75;;;3.45;;
30533;SDS011;17318;52.390;9.754;2023-05-16T03:15:47;9.13;;;3.70;;
30533;SDS011;17318;52.390;9.754;2023-05-16T03:18:13;10.45;;;3.45;;
30533;SDS011;17318;52.390;9.754;2023-05-16T03:20:39;14.45;;;3.63;;
30533;SDS011;17318;52.390;9.754;2023-05-16T03:23:05;11.63;;;3.40;;
30533;SDS011;17318;52.390;9.754;2023-05-16T03:25:35;13.32;;;3.50;;
30533;SDS011;17318;52.390;9.754;2023-05-16T03:28:01;13.85;;;3.25;;
30533;SDS011;17318;52.390;9.754;2023-05-16T03:30:27;6.18;;;2.60;;
30533;SDS011;17318;52.390;9.754;2023-05-16T03:32:53;11.63;;;2.83;;
30533;SDS011;17318;52.390;9.754;2023-05-16T03:35:19;10.93;;;2.60;;
30533;SDS011;17318;52.390;9.754;2023-05-16T03:37:45;9.18;;;2.40;;
30533;SDS011;17318;52.390;9.754;2023-05-16T03:40:11;9.38;;;3.70;;
30533;SDS011;17318;52.390;9.754;2023-05-16T03:42:37;12.15;;;2.50;;
30533;SDS011;17318;52.390;9.754;2023-05-16T03:45:06;11.18;;;2.67;;
30533;SDS011;17318;52.390;9.754;2023-05-16T03:47:32;9.57;;;2.30;;
30533;SDS011;17318;52.390;9.754;2023-05-16T03:49:58;15.32;;;2.70;;
30533;SDS011;17318;52.390;9.754;2023-05-16T03:52:23;18.33;;;2.63;;
30533;SDS011;17318;52.390;9.754;2023-05-16T03:54:49;7.68;;;2.00;;
30533;SDS011;17318;52.390;9.754;2023-05-16T03:57:15;11.32;;;2.08;;
30533;SDS011;17318;52.390;9.754;2023-05-16T03:59:40;9.23;;;2.63;;
30533;SDS011;17318;52.390;9.754;2023-05-16T04:02:06;6.90;;;1.90;;
30533;SDS011;17318;52.390;9.754;2023-05-16T04:04:32;16.75;;;2.20;;
30533;SDS011;17318;52.390;9.754;2023-05-16T04:06:58;10.82;;;2.28;;
30533;SDS011;17318;52.390;9.754;2023-05-16T04:09:24;16.70;;;2.20;;
30533;SDS011;17318;52.390;9.754;2023-05-16T04:11:50;5.32;;;2.00;;
30533;SDS011;17318;52.390;9.754;2023-05-16T04:14:16;14.05;;;2.55;;
30533;SDS011;17318;52.390;9.754;2023-05-16T04:16:41;11.75;;;2.13;;
30533;SDS011;17318;52.390;9.754;2023-05-16T04:19:07;7.85;;;2.17;;
30533;SDS011;17318;52.390;9.754;2023-05-16T04:21:33;14.55;;;2.33;;
30533;SDS011;17318;52.390;9.754;2023-05-16T04:24:00;10.98;;;2.65;;
30533;SDS011;17318;52.390;9.754;2023-05-16T04:26:26;10.27;;;2.35;;
30533;SDS011;17318;52.390;9.754;2023-05-16T04:28:52;11.77;;;3.15;;
30533;SDS011;17318;52.390;9.754;2023-05-16T04:31:17;12.40;;;2.70;;
30533;SDS011;17318;52.390;9.754;2023-05-16T04:33:43;10.15;;;2.42;;
30533;SDS011;17318;52.390;9.754;2023-05-16T04:36:09;17.05;;;2.70;;
30533;SDS011;17318;52.390;9.754;2023-05-16T04:38:35;11.63;;;2.30;;
30533;SDS011;17318;52.390;9.754;2023-05-16T04:41:01;15.52;;;2.63;;
30533;SDS011;17318;52.390;9.754;2023-05-16T04:43:28;14.25;;;2.53;;
30533;SDS011;17318;52.390;9.754;2023-05-16T04:45:54;20.30;;;2.40;;
30533;SDS011;17318;52.390;9.754;2023-05-16T04:48:19;16.75;;;2.35;;
30533;SDS011;17318;52.390;9.754;2023-05-16T04:50:45;12.23;;;2.50;;
30533;SDS011;17318;52.390;9.754;2023-05-16T04:53:11;11.60;;;2.45;;
30533;SDS011;17318;52.390;9.754;2023-05-16T04:55:39;19.77;;;2.55;;
30533;SDS011;17318;52.390;9.754;2023-05-16T04:58:04;19.48;;;3.50;;
30533;SDS011;17318;52.390;9.754;2023-05-16T05:00:30;14.00;;;2.38;;
30533;SDS011;17318;52.390;9.754;2023-05-16T05:02:56;15.75;;;2.15;;
30533;SDS011;17318;52.390;9.754;2023-05-16T05:05:22;18.23;;;2.45;;
30533;SDS011;17318;52.390;9.754;2023-05-16T05:07:48;17.38;;;2.72;;
30533;SDS011;17318;52.390;9.754;2023-05-16T05:10:13;14.43;;;2.35;;
30533;SDS011;17318;52.390;9.754;2023-05-16T05:12:39;23.27;;;2.72;;
30533;SDS011;17318;52.390;9.754;2023-05-16T05:15:05;6.57;;;1.60;;
30533;SDS011;17318;52.390;9.754;2023-05-16T05:17:31;15.90;;;2.28;;
30533;SDS011;17318;52.390;9.754;2023-05-16T05:19:57;17.27;;;2.40;;
30533;SDS011;17318;52.390;9.754;2023-05-16T05:22:22;20.95;;;2.05;;
30533;SDS011;17318;52.390;9.754;2023-05-16T05:24:48;19.25;;;2.38;;
30533;SDS011;17318;52.390;9.754;2023-05-16T05:27:13;21.15;;;2.42;;
30533;SDS011;17318;52.390;9.754;2023-05-16T05:29:40;22.40;;;2.80;;
30533;SDS011;17318;52.390;9.754;2023-05-16T05:32:06;17.45;;;2.40;;
30533;SDS011;17318;52.390;9.754;2023-05-16T05:34:32;15.95;;;2.97;;
30533;SDS011;17318;52.390;9.754;2023-05-16T05:36:58;27.70;;;3.00;;
30533;SDS011;17318;52.390;9.754;2023-05-16T05:39:24;15.60;;;2.35;;
30533;SDS011;17318;52.390;9.754;2023-05-16T05:41:50;14.77;;;2.30;;
30533;SDS011;17318;52.390;9.754;2023-05-16T05:44:16;15.80;;;2.20;;
30533;SDS011;17318;52.390;9.754;2023-05-16T05:46:41;16.23;;;2.20;;
30533;SDS011;17318;52.390;9.754;2023-05-16T05:49:07;21.00;;;2.08;;
30533;SDS011;17318;52.390;9.754;2023-05-16T05:51:33;18.35;;;2.38;;
30533;SDS011;17318;52.390;9.754;2023-05-16T05:53:59;16.05;;;2.28;;
30533;SDS011;17318;52.390;9.754;2023-05-16T05:56:25;19.50;;;2.70;;
30533;SDS011;17318;52.390;9.754;2023-05-16T05:58:51;18.27;;;2.90;;
30533;SDS011;17318;52.390;9.754;2023-05-16T06:01:17;10.38;;;1.95;;
30533;SDS011;17318;52.390;9.754;2023-05-16T06:03:45;15.00;;;2.22;;
30533;SDS011;17318;52.390;9.754;2023-05-16T06:06:10;16.33;;;2.00;;
30533;SDS011;17318;52.390;9.754;2023-05-16T06:08:36;11.68;;;2.35;;
30533;SDS011;17318;52.390;9.754;2023-05-16T06:11:02;20.38;;;2.60;;
30533;SDS011;17318;52.390;9.754;2023-05-16T06:13:28;16.17;;;3.13;;
30533;SDS011;17318;52.390;9.754;2023-05-16T06:15:53;13.57;;;3.25;;
30533;SDS011;17318;52.390;9.754;2023-05-16T06:18:19;17.38;;;2.33;;
30533;SDS011;17318;52.390;9.754;2023-05-16T06:20:45;15.88;;;2.83;;
30533;SDS011;17318;52.390;9.754;2023-05-16T06:23:11;18.45;;;2.30;;
30533;SDS011;17318;52.390;9.754;2023-05-16T06:25:37;22.35;;;2.60;;
30533;SDS011;17318;52.390;9.754;2023-05-16T06:28:03;23.40;;;3.08;;
30533;SDS011;17318;52.390;9.754;2023-05-16T06:30:29;17.38;;;2.17;;
30533;SDS011;17318;52.390;9.754;2023-05-16T06:32:54;19.05;;;2.95;;
30533;SDS011;17318;52.390;9.754;2023-05-16T06:35:20;14.55;;;2.28;;
30533;SDS011;17318;52.390;9.754;2023-05-16T06:37:47;14.93;;;2.50;;
30533;SDS011;17318;52.390;9.754;2023-05-16T06:40:12;14.00;;;2.35;;
30533;SDS011;17318;52.390;9.754;2023-05-16T06:42:38;9.93;;;1.77;;
30533;SDS011;17318;52.390;9.754;2023-05-16T06:45:04;16.95;;;2.67;;
30533;SDS011;17318;52.390;9.754;2023-05-16T06:47:30;20.40;;;2.45;;
30533;SDS011;17318;52.390;9.754;2023-05-16T06:49:56;13.00;;;1.45;;
30533;SDS011;17318;52.390;9.754;2023-05-16T06:52:22;8.13;;;1.40;;
30533;SDS011;17318;52.390;9.754;2023-05-16T06:54:47;13.75;;;1.90;;
30533;SDS011;17318;52.390;9.754;2023-05-16T06:57:13;19.00;;;2.60;;
30533;SDS011;17318;52.390;9.754;2023-05-16T06:59:39;15.55;;;2.55;;
30533;SDS011;17318;52.390;9.754;2023-05-16T07:02:05;18.77;;;3.17;;
30533;SDS011;17318;52.390;9.754;2023-05-16T07:04:31;12.93;;;1.95;;
30533;SDS011;17318;52.390;9.754;2023-05-16T07:06:56;17.85;;;1.92;;
30533;SDS011;17318;52.390;9.754;2023-05-16T07:09:22;12.30;;;1.75;;
30533;SDS011;17318;52.390;9.754;2023-05-16T07:11:48;15.45;;;2.25;;
30533;SDS011;17318;52.390;9.754;2023-05-16T07:14:13;13.73;;;1.65;;
30533;SDS011;17318;52.390;9.754;2023-05-16T07:16:39;11.18;;;2.13;;
30533;SDS011;17318;52.390;9.754;2023-05-16T07:19:05;15.10;;;2.63;;
30533;SDS011;17318;52.390;9.754;2023-05-16T07:21:30;17.67;;;2.13;;
30533;SDS011;17318;52.390;9.754;2023-05-16T07:23:56;15.48;;;2.13;;
30533;SDS011;17318;52.390;9.754;2023-05-16T07:26:22;11.82;;;1.73;;
30533;SDS011;17318;52.390;9.754;2023-05-16T07:28:51;14.13;;;1.60;;
30533;SDS011;17318;52.390;9.754;2023-05-16T07:31:17;9.00;;;1.70;;
30533;SDS011;17318;52.390;9.754;2023-05-16T07:33:43;13.40;;;1.60;;
30533;SDS011;17318;52.390;9.754;2023-05-16T07:36:09;14.25;;;1.50;;
30533;SDS011;17318;52.390;9.754;2023-05-16T07:38:35;6.63;;;1.58;;
30533;SDS011;17318;52.390;9.754;2023-05-16T07:41:01;15.45;;;1.73;;
30533;SDS011;17318;52.390;9.754;2023-05-16T07:43:26;11.75;;;1.70;;
30533;SDS011;17318;52.390;9.754;2023-05-16T07:45:53;11.65;;;1.63;;
30533;SDS011;17318;52.390;9.754;2023-05-16T07:48:20;11.63;;;2.05;;
30533;SDS011;17318;52.390;9.754;2023-05-16T07:50:45;13.40;;;2.45;;
30533;SDS011;17318;52.390;9.754;2023-05-16T07:53:11;9.00;;;1.50;;
30533;SDS011;17318;52.390;9.754;2023-05-16T07:55:37;9.60;;;2.05;;
30533;SDS011;17318;52.390;9.754;2023-05-16T07:58:02;14.02;;;1.20;;
30533;SDS011;17318;52.390;9.754;2023-05-16T08:00:28;12.35;;;2.17;;
30533;SDS011;17318;52.390;9.754;2023-05-16T08:02:54;4.65;;;1.30;;
30533;SDS011;17318;52.390;9.754;2023-05-16T08:05:21;8.82;;;1.33;;
30533;SDS011;17318;52.390;9.754;2023-05-16T08:07:47;10.43;;;1.40;;
30533;SDS011;17318;52.390;9.754;2023-05-16T08:10:13;11.93;;;2.45;;
30533;SDS011;17318;52.390;9.754;2023-05-16T08:12:38;7.75;;;1.50;;
30533;SDS011;17318;52.390;9.754;2023-05-16T08:15:04;7.40;;;1.42;;
30533;SDS011;17318;52.390;9.754;2023-05-16T08:17:31;7.80;;;1.70;;
30533;SDS011;17318;52.390;9.754;2023-05-16T08:19:57;9.00;;;1.40;;
30533;SDS011;17318;52.390;9.754;2023-05-16T08:22:24;16.42;;;1.52;;
30533;SDS011;17318;52.390;9.754;2023-05-16T08:24:49;5.90;;;1.55;;
30533;SDS011;17318;52.390;9.754;2023-05-16T08:27:15;12.60;;;1.85;;
30533;SDS011;17318;52.390;9.754;2023-05-16T08:29:41;5.57;;;1.35;;
30533;SDS011;17318;52.390;9.754;2023-05-16T08:32:07;7.30;;;2.05;;
30533;SDS011;17318;52.390;9.754;2023-05-16T08:34:34;10.02;;;1.63;;
30533;SDS011;17318;52.390;9.754;2023-05-16T08:37:01;7.60;;;2.25;;
30533;SDS011;17318;52.390;9.754;2023-05-16T08:39:26;4.03;;;1.08;;
30533;SDS011;17318;52.390;9.754;2023-05-16T08:41:54;7.25;;;1.30;;
30533;SDS011;17318;52.390;9.754;2023-05-16T08:44:20;7.88;;;1.48;;
30533;SDS011;17318;52.390;9.754;2023-05-16T08:46:52;4.95;;;1.70;;
30533;SDS011;17318;52.390;9.754;2023-05-16T08:49:19;7.15;;;1.60;;
30533;SDS011;17318;52.390;9.754;2023-05-16T08:51:46;6.00;;;1.17;;
30533;SDS011;17318;52.390;9.754;2023-05-16T08:54:12;8.27;;;1.33;;
30533;SDS011;17318;52.390;9.754;2023-05-16T08:56:42;9.43;;;1.70;;
30533;SDS011;17318;52.390;9.754;2023-05-16T08:59:09;5.70;;;1.40;;
30533;SDS011;17318;52.390;9.754;2023-05-16T09:01:38;6.90;;;1.48;;
30533;SDS011;17318;52.390;9.754;2023-05-16T09:04:06;9.75;;;1.75;;
30533;SDS011;17318;52.390;9.754;2023-05-16T09:06:33;7.35;;;1.10;;
30533;SDS011;17318;52.390;9.754;2023-05-16T09:09:02;8.00;;;1.20;;
30533;SDS011;17318;52.390;9.754;2023-05-16T09:11:29;3.10;;;1.13;;
30533;SDS011;17318;52.390;9.754;2023-05-16T09:13:54;7.10;;;1.48;;
30533;SDS011;17318;52.390;9.754;2023-05-16T09:16:20;7.07;;;1.30;;
30533;SDS011;17318;52.390;9.754;2023-05-16T09:18:51;5.38;;;1.10;;
30533;SDS011;17318;52.390;9.754;2023-05-16T09:21:19;8.10;;;1.73;;
30533;SDS011;17318;52.390;9.754;2023-05-16T09:23:47;5.10;;;1.45;;
30533;SDS011;17318;52.390;9.754;2023-05-16T09:26:13;7.82;;;1.25;;
30533;SDS011;17318;52.390;9.754;2023-05-16T09:28:40;4.18;;;1.50;;
30533;SDS011;17318;52.390;9.754;2023-05-16T09:31:19;5.82;;;1.50;;
30533;SDS011;17318;52.390;9.754;2023-05-16T09:33:46;9.02;;;1.45;;
30533;SDS011;17318;52.390;9.754;2023-05-16T09:36:14;7.47;;;2.08;;
30533;SDS011;17318;52.390;9.754;2023-05-16T09:38:40;3.85;;;1.25;;
30533;SDS011;17318;52.390;9.754;2023-05-16T09:41:06;4.95;;;1.60;;
30533;SDS011;17318;52.390;9.754;2023-05-16T09:43:36;6.72;;;1.40;;
30533;SDS011;17318;52.390;9.754;2023-05-16T09:46:03;5.65;;;1.40;;
30533;SDS011;17318;52.390;9.754;2023-05-16T09:48:29;4.63;;;1.17;;
30533;SDS011;17318;52.390;9.754;2023-05-16T09:50:56;9.13;;;2.23;;
30533;SDS011;17318;52.390;9.754;2023-05-16T09:53:27;6.43;;;1.60;;
30533;SDS011;17318;52.390;9.754;2023-05-16T09:55:58;4.55;;;0.90;;
30533;SDS011;17318;52.390;9.754;2023-05-16T09:58:27;5.97;;;1.33;;
30533;SDS011;17318;52.390;9.754;2023-05-16T10:00:57;9.07;;;1.42;;
30533;SDS011;17318;52.390;9.754;2023-05-16T10:03:26;7.68;;;1.60;;
30533;SDS011;17318;52.390;9.754;2023-05-16T10:05:52;6.85;;;1.30;;
30533;SDS011;17318;52.390;9.754;2023-05-16T10:08:23;5.72;;;1.23;;
30533;SDS011;17318;52.390;9.754;2023-05-16T10:10:50;9.00;;;3.10;;
30533;SDS011;17318;52.390;9.754;2023-05-16T10:13:27;13.57;;;4.55;;
30533;SDS011;17318;52.390;9.754;2023-05-16T10:15:56;5.20;;;1.15;;
30533;SDS011;17318;52.390;9.754;2023-05-16T10:18:27;5.15;;;1.08;;
30533;SDS011;17318;52.390;9.754;2023-05-16T10:20:54;7.25;;;1.23;;
30533;SDS011;17318;52.390;9.754;2023-05-16T10:23:23;10.57;;;1.83;;
30533;SDS011;17318;52.390;9.754;2023-05-16T10:28:16;5.43;;;1.13;;
30533;SDS011;17318;52.390;9.754;2023-05-16T10:30:46;7.78;;;1.25;;
30533;SDS011;17318;52.390;9.754;2023-05-16T10:33:15;5.53;;;1.27;;
30533;SDS011;17318;52.390;9.754;2023-05-16T10:35:42;5.35;;;1.10;;
30533;SDS011;17318;52.390;9.754;2023-05-16T10:38:09;8.65;;;1.27;;
30533;SDS011;17318;52.390;9.754;2023-05-16T10:40:37;7.93;;;1.65;;
30533;SDS011;17318;52.390;9.754;2023-05-16T10:43:04;3.60;;;1.15;;
30533;SDS011;17318;52.390;9.754;2023-05-16T10:45:31;6.25;;;0.90;;
30533;SDS011;17318;52.390;9.754;2023-05-16T10:48:00;3.10;;;0.73;;
30533;SDS011;17318;52.390;9.754;2023-05-16T10:50:36;5.95;;;1.00;;
30533;SDS011;17318;52.390;9.754;2023-05-16T10:53:19;8.00;;;1.20;;
30533;SDS011;17318;52.390;9.754;2023-05-16T10:55:49;11.90;;;2.13;;
30533;SDS011;17318;52.390;9.754;2023-05-16T11:01:26;2.72;;;1.20;;
30533;SDS011;17318;52.390;9.754;2023-05-16T11:11:43;6.22;;;1.27;;
30533;SDS011;17318;52.390;9.754;2023-05-16T11:19:31;4.03;;;1.05;;
30533;SDS011;17318;52.390;9.754;2023-05-16T11:24:52;8.13;;;1.10;;
30533;SDS011;17318;52.390;9.754;2023-05-16T11:27:34;6.18;;;1.05;;
30533;SDS011;17318;52.390;9.754;2023-05-16T11:32:34;8.57;;;1.08;;
30533;SDS011;17318;52.390;9.754;2023-05-16T11:35:05;10.18;;;1.20;;
30533;SDS011;17318;52.390;9.754;2023-05-16T11:37:33;7.10;;;1.70;;
30533;SDS011;17318;52.390;9.754;2023-05-16T11:40:08;9.02;;;1.17;;
30533;SDS011;17318;52.390;9.754;2023-05-16T11:42:41;9.23;;;2.40;;
30533;SDS011;17318;52.390;9.754;2023-05-16T11:45:11;4.28;;;1.10;;
30533;SDS011;17318;52.390;9.754;2023-05-16T11:47:40;4.32;;;1.10;;
30533;SDS011;17318;52.390;9.754;2023-05-16T11:50:15;4.40;;;1.13;;
30533;SDS011;17318;52.390;9.754;2023-05-16T11:52:43;7.47;;;1.00;;
30533;SDS011;17318;52.390;9.754;2023-05-16T11:55:11;2.95;;;1.23;;
30533;SDS011;17318;52.390;9.754;2023-05-16T11:57:37;3.20;;;0.93;;
30533;SDS011;17318;52.390;9.754;2023-05-16T12:00:13;6.78;;;1.60;;
30533;SDS011;17318;52.390;9.754;2023-05-16T12:02:53;11.13;;;1.30;;
30533;SDS011;17318;52.390;9.754;2023-05-16T12:05:24;7.10;;;1.40;;
30533;SDS011;17318;52.390;9.754;2023-05-16T12:07:51;4.85;;;1.30;;
30533;SDS011;17318;52.390;9.754;2023-05-16T12:10:19;4.78;;;1.40;;
30533;SDS011;17318;52.390;9.754;2023-05-16T12:12:46;8.50;;;1.50;;
30533;SDS011;17318;52.390;9.754;2023-05-16T12:15:15;7.43;;;1.10;;
30533;SDS011;17318;52.390;9.754;2023-05-16T12:17:41;4.07;;;1.25;;
30533;SDS011;17318;52.390;9.754;2023-05-16T12:20:07;5.25;;;1.02;;
30533;SDS011;17318;52.390;9.754;2023-05-16T12:22:42;5.13;;;1.17;;
30533;SDS011;17318;52.390;9.754;2023-05-16T12:27:54;6.35;;;1.05;;
30533;SDS011;17318;52.390;9.754;2023-05-16T12:32:51;3.92;;;1.00;;
30533;SDS011;17318;52.390;9.754;2023-05-16T12:35:19;6.80;;;1.08;;
30533;SDS011;17318;52.390;9.754;2023-05-16T12:37:45;4.10;;;0.95;;
30533;SDS011;17318;52.390;9.754;2023-05-16T12:40:11;7.40;;;1.23;;
30533;SDS011;17318;52.390;9.754;2023-05-16T12:42:37;10.30;;;1.73;;
30533;SDS011;17318;52.390;9.754;2023-05-16T12:45:03;7.03;;;1.48;;
30533;SDS011;17318;52.390;9.754;2023-05-16T12:47:36;8.95;;;1.65;;
30533;SDS011;17318;52.390;9.754;2023-05-16T12:50:07;9.90;;;3.15;;
30533;SDS011;17318;52.390;9.754;2023-05-16T12:52:51;18.45;;;8.77;;
30533;SDS011;17318;52.390;9.754;2023-05-16T12:55:18;8.00;;;2.13;;
30533;SDS011;17318;52.390;9.754;2023-05-16T12:57:45;4.78;;;1.60;;
30533;SDS011;17318;52.390;9.754;2023-05-16T13:00:12;13.50;;;1.45;;
30533;SDS011;17318;52.390;9.754;2023-05-16T13:02:39;8.25;;;1.83;;
30533;SDS011;17318;52.390;9.754;2023-05-16T13:05:05;6.68;;;2.17;;
30533;SDS011;17318;52.390;9.754;2023-05-16T13:07:32;5.35;;;1.35;;
30533;SDS011;17318;52.390;9.754;2023-05-16T13:09:58;7.25;;;1.25;;
30533;SDS011;17318;52.390;9.754;2023-05-16T13:12:23;10.20;;;2.13;;
30533;SDS011;17318;52.390;9.754;2023-05-16T13:14:53;6.13;;;1.03;;
30533;SDS011;17318;52.390;9.754;2023-05-16T13:17:19;2.97;;;1.00;;
30533;SDS011;17318;52.390;9.754;2023-05-16T13:19:45;6.82;;;1.08;;
30533;SDS011;17318;52.390;9.754;2023-05-16T13:22:11;5.28;;;1.05;;
30533;SDS011;17318;52.390;9.754;2023-05-16T13:24:37;2.28;;;0.73;;
30533;SDS011;17318;52.390;9.754;2023-05-16T13:27:02;1.67;;;0.63;;
30533;SDS011;17318;52.390;9.754;2023-05-16T13:29:28;4.03;;;1.00;;
30533;SDS011;17318;52.390;9.754;2023-05-16T13:31:54;3.38;;;0.95;;
30533;SDS011;17318;52.390;9.754;2023-05-16T13:34:20;3.00;;;0.82;;
30533;SDS011;17318;52.390;9.754;2023-05-16T13:36:46;3.22;;;0.82;;
30533;SDS011;17318;52.390;9.754;2023-05-16T13:39:13;7.47;;;1.42;;
30533;SDS011;17318;52.390;9.754;2023-05-16T13:41:38;6.47;;;1.25;;
30533;SDS011;17318;52.390;9.754;2023-05-16T13:44:06;4.93;;;1.03;;
30533;SDS011;17318;52.390;9.754;2023-05-16T13:46:32;5.90;;;0.95;;
30533;SDS011;17318;52.390;9.754;2023-05-16T13:48:58;5.40;;;1.17;;
30533;SDS011;17318;52.390;9.754;2023-05-16T13:51:24;3.70;;;0.77;;
30533;SDS011;17318;52.390;9.754;2023-05-16T13:53:49;2.47;;;0.75;;
30533;SDS011;17318;52.390;9.754;2023-05-16T13:56:15;4.70;;;1.13;;
30533;SDS011;17318;52.390;9.754;2023-05-16T13:58:41;5.15;;;1.48;;
30533;SDS011;17318;52.390;9.754;2023-05-16T14:01:06;4.93;;;1.00;;
30533;SDS011;17318;52.390;9.754;2023-05-16T14:03:32;2.05;;;0.80;;
30533;SDS011;17318;52.390;9.754;2023-05-16T14:06:00;3.40;;;0.90;;
30533;SDS011;17318;52.390;9.754;2023-05-16T14:08:26;5.85;;;1.00;;
30533;SDS011;17318;52.390;9.754;2023-05-16T14:10:51;5.25;;;1.13;;
30533;SDS011;17318;52.390;9.754;2023-05-16T14:13:17;7.63;;;0.82;;
30533;SDS011;17318;52.390;9.754;2023-05-16T14:15:43;2.50;;;1.00;;
30533;SDS011;17318;52.390;9.754;2023-05-16T14:18:09;2.90;;;0.73;;
30533;SDS011;17318;52.390;9.754;2023-05-16T14:20:35;10.93;;;1.02;;
30533;SDS011;17318;52.390;9.754;2023-05-16T14:23:00;5.93;;;0.88;;
30533;SDS011;17318;52.390;9.754;2023-05-16T14:25:26;7.22;;;2.28;;
30533;SDS011;17318;52.390;9.754;2023-05-16T14:27:52;5.03;;;1.27;;
30533;SDS011;17318;52.390;9.754;2023-05-16T14:30:18;8.23;;;1.30;;
30533;SDS011;17318;52.390;9.754;2023-05-16T14:32:44;7.38;;;1.05;;
30533;SDS011;17318;52.390;9.754;2023-05-16T14:35:10;3.15;;;0.95;;
30533;SDS011;17318;52.390;9.754;2023-05-16T14:37:36;1.42;;;0.75;;
30533;SDS011;17318;52.390;9.754;2023-05-16T14:40:02;4.20;;;1.10;;
30533;SDS011;17318;52.390;9.754;2023-05-16T14:42:30;10.88;;;2.00;;
30533;SDS011;17318;52.390;9.754;2023-05-16T14:44:55;7.53;;;1.00;;
30533;SDS011;17318;52.390;9.754;2023-05-16T14:47:22;3.15;;;0.95;;
30533;SDS011;17318;52.390;9.754;2023-05-16T14:49:48;1.80;;;0.47;;
30533;SDS011;17318;52.390;9.754;2023-05-16T14:52:14;2.03;;;0.40;;
30533;SDS011;17318;52.390;9.754;2023-05-16T14:54:39;3.47;;;1.38;;
30533;SDS011;17318;52.390;9.754;2023-05-16T14:57:05;5.70;;;2.10;;
30533;SDS011;17318;52.390;9.754;2023-05-16T14:59:31;4.80;;;1.42;;
30533;SDS011;17318;52.390;9.754;2023-05-16T15:01:57;2.60;;;0.80;;
30533;SDS011;17318;52.390;9.754;2023-05-16T15:04:23;4.70;;;1.00;;
30533;SDS011;17318;52.390;9.754;2023-05-16T15:06:51;5.78;;;1.08;;
30533;SDS011;17318;52.390;9.754;2023-05-16T15:09:16;2.78;;;0.80;;
30533;SDS011;17318;52.390;9.754;2023-05-16T15:11:43;3.55;;;0.70;;
30533;SDS011;17318;52.390;9.754;2023-05-16T15:14:09;4.57;;;0.70;;
30533;SDS011;17318;52.390;9.754;2023-05-16T15:16:35;7.10;;;1.02;;
30533;SDS011;17318;52.390;9.754;2023-05-16T15:19:01;5.45;;;1.10;;
30533;SDS011;17318;52.390;9.754;2023-05-16T15:21:27;3.50;;;0.88;;
30533;SDS011;17318;52.390;9.754;2023-05-16T15:23:53;5.85;;;1.50;;
30533;SDS011;17318;52.390;9.754;2023-05-16T15:26:19;5.65;;;0.90;;